sensor_id;sensor_type;location;lat;lon;timestamp;temperature;humidity
3226;DHT22;1625;49.884;8.666;2023-02-28T00:03:14;1.00;99.90
3226;DHT22;1625;49.884;8.666;2023-02-28T00:05:41;0.90;99.90
3226;DHT22;1625;49.884;8.666;2023-02-28T00:08:37;0.90;99.90
3226;DHT22;1625;49.884;8.666;2023-02-28T00:11:58;1.00;99.90
3226;DHT22;1625;49.884;8.666;2023-02-28T00:20:12;1.00;99.90
3226;DHT22;1625;49.884;8.666;2023-02-28T00:22:42;1.00;99.90
3226;DHT22;1625;49.884;8.666;2023-02-28T00:25:09;0.90;99.90
3226;DHT22;1625;49.884;8.666;2023-02-28T00:27:41;0.90;99.90
3226;DHT22;1625;49.884;8.666;2023-02-28T00:30:16;1.00;99.90
3226;DHT22;1625;49.884;8.666;2023-02-28T00:32:52;0.90;99.90
3226;DHT22;1625;49.884;8.666;2023-02-28T00:35:25;0.80;99.90
3226;DHT22;1625;49.884;8.666;2023-02-28T00:37:51;0.80;99.90
3226;DHT22;1625;49.884;8.666;2023-02-28T00:41:02;0.90;99.90
3226;DHT22;1625;49.884;8.666;2023-02-28T01:07:08;0.70;99.90
3226;DHT22;1625;49.884;8.666;2023-02-28T01:09:34;0.70;99.90
3226;DHT22;1625;49.884;8.666;2023-02-28T01:19:39;0.70;99.90
3226;DHT22;1625;49.884;8.666;2023-02-28T01:22:10;0.80;99.90
3226;DHT22;1625;49.884;8.666;2023-02-28T01:24:38;0.60;99.90
3226;DHT22;1625;49.884;8.666;2023-02-28T01:27:05;0.70;99.90
3226;DHT22;1625;49.884;8.666;2023-02-28T01:29:48;0.30;99.90
3226;DHT22;1625;49.884;8.666;2023-02-28T01:33:30;0.70;99.90
3226;DHT22;1625;49.884;8.666;2023-02-28T01:37:05;0.70;99.90
3226;DHT22;1625;49.884;8.666;2023-02-28T01:40:22;0.60;99.90
3226;DHT22;1625;49.884;8.666;2023-02-28T01:56:56;0.60;99.90
3226;DHT22;1625;49.884;8.666;2023-02-28T01:59:41;0.40;99.90
3226;DHT22;1625;49.884;8.666;2023-02-28T02:02:17;0.60;99.90
3226;DHT22;1625;49.884;8.666;2023-02-28T05:27:11;0.00;99.90
3226;DHT22;1625;49.884;8.666;2023-02-28T05:42:55;-0.20;99.90
3226;DHT22;1625;49.884;8.666;2023-02-28T05:46:14;-0.30;99.90
3226;DHT22;1625;49.884;8.666;2023-02-28T05:48:48;-0.20;99.90
3226;DHT22;1625;49.884;8.666;2023-02-28T05:51:46;-0.10;99.90
3226;DHT22;1625;49.884;8.666;2023-02-28T05:54:12;-0.10;99.90
3226;DHT22;1625;49.884;8.666;2023-02-28T05:56:37;-0.20;99.90
3226;DHT22;1625;49.884;8.666;2023-02-28T05:59:05;-0.20;99.90
3226;DHT22;1625;49.884;8.666;2023-02-28T06:01:34;-0.20;99.90
3226;DHT22;1625;49.884;8.666;2023-02-28T07:21:39;0.10;99.90
3226;DHT22;1625;49.884;8.666;2023-02-28T07:24:07;0.10;99.90
3226;DHT22;1625;49.884;8.666;2023-02-28T07:26:33;0.10;99.90
3226;DHT22;1625;49.884;8.666;2023-02-28T07:29:02;0.10;99.90
3226;DHT22;1625;49.884;8.666;2023-02-28T07:31:27;0.10;99.90
3226;DHT22;1625;49.884;8.666;2023-02-28T10:14:34;4.10;99.90
3226;DHT22;1625;49.884;8.666;2023-02-28T10:17:10;3.50;99.90
3226;DHT22;1625;49.884;8.666;2023-02-28T10:20:01;3.70;99.90
3226;DHT22;1625;49.884;8.666;2023-02-28T10:25:19;3.70;99.90
3226;DHT22;1625;49.884;8.666;2023-02-28T10:28:20;3.90;99.90
3226;DHT22;1625;49.884;8.666;2023-02-28T10:31:01;3.60;99.90
3226;DHT22;1625;49.884;8.666;2023-02-28T10:33:32;4.10;99.90
3226;DHT22;1625;49.884;8.666;2023-02-28T10:36:00;3.60;99.90
3226;DHT22;1625;49.884;8.666;2023-02-28T10:38:38;3.70;99.90
3226;DHT22;1625;49.884;8.666;2023-02-28T10:41:09;3.70;99.90
3226;DHT22;1625;49.884;8.666;2023-02-28T10:43:37;3.60;99.90
3226;DHT22;1625;49.884;8.666;2023-02-28T10:48:44;3.60;99.90
3226;DHT22;1625;49.884;8.666;2023-02-28T10:51:18;3.70;99.90
3226;DHT22;1625;49.884;8.666;2023-02-28T10:54:02;3.60;99.90
3226;DHT22;1625;49.884;8.666;2023-02-28T10:56:29;3.60;99.90
3226;DHT22;1625;49.884;8.666;2023-02-28T11:01:53;3.60;99.90
3226;DHT22;1625;49.884;8.666;2023-02-28T11:07:33;3.70;99.90
3226;DHT22;1625;49.884;8.666;2023-02-28T11:12:07;3.80;99.90
3226;DHT22;1625;49.884;8.666;2023-02-28T11:14:41;3.60;99.90
3226;DHT22;1625;49.884;8.666;2023-02-28T11:17:24;3.90;99.90
3226;DHT22;1625;49.884;8.666;2023-02-28T11:19:55;3.90;99.90
3226;DHT22;1625;49.884;8.666;2023-02-28T11:22:27;3.80;99.90
3226;DHT22;1625;49.884;8.666;2023-02-28T11:24:59;3.70;99.90
3226;DHT22;1625;49.884;8.666;2023-02-28T11:30:03;4.00;99.90
3226;DHT22;1625;49.884;8.666;2023-02-28T11:32:35;4.10;99.90
3226;DHT22;1625;49.884;8.666;2023-02-28T11:37:37;4.50;99.90
3226;DHT22;1625;49.884;8.666;2023-02-28T11:40:12;4.60;99.90
3226;DHT22;1625;49.884;8.666;2023-02-28T11:43:06;4.80;99.90
3226;DHT22;1625;49.884;8.666;2023-02-28T12:10:27;5.10;98.80
3226;DHT22;1625;49.884;8.666;2023-02-28T12:16:18;5.20;98.50
3226;DHT22;1625;49.884;8.666;2023-02-28T12:18:57;5.20;98.10
3226;DHT22;1625;49.884;8.666;2023-02-28T12:21:48;5.10;97.30
3226;DHT22;1625;49.884;8.666;2023-02-28T12:24:25;5.10;97.70
3226;DHT22;1625;49.884;8.666;2023-02-28T12:26:53;5.20;97.40
3226;DHT22;1625;49.884;8.666;2023-02-28T12:29:26;5.30;98.40
3226;DHT22;1625;49.884;8.666;2023-02-28T12:32:19;5.40;98.60
3226;DHT22;1625;49.884;8.666;2023-02-28T12:35:22;5.40;97.50
3226;DHT22;1625;49.884;8.666;2023-02-28T12:38:04;5.40;98.20
3226;DHT22;1625;49.884;8.666;2023-02-28T12:40:47;5.50;98.30
3226;DHT22;1625;49.884;8.666;2023-02-28T12:43:16;5.60;99.50
3226;DHT22;1625;49.884;8.666;2023-02-28T12:46:10;5.70;98.20
3226;DHT22;1625;49.884;8.666;2023-02-28T12:48:42;5.80;98.60
3226;DHT22;1625;49.884;8.666;2023-02-28T12:51:11;5.80;97.70
3226;DHT22;1625;49.884;8.666;2023-02-28T12:56:26;5.70;96.30
3226;DHT22;1625;49.884;8.666;2023-02-28T12:59:03;5.60;96.80
3226;DHT22;1625;49.884;8.666;2023-02-28T13:01:48;5.60;97.60
3226;DHT22;1625;49.884;8.666;2023-02-28T13:07:12;5.70;98.30
3226;DHT22;1625;49.884;8.666;2023-02-28T13:09:39;5.70;97.10
3226;DHT22;1625;49.884;8.666;2023-02-28T13:12:15;5.90;97.60
3226;DHT22;1625;49.884;8.666;2023-02-28T13:14:42;5.90;98.60
3226;DHT22;1625;49.884;8.666;2023-02-28T13:19:37;5.90;96.30
3226;DHT22;1625;49.884;8.666;2023-02-28T13:22:04;5.90;96.30
3226;DHT22;1625;49.884;8.666;2023-02-28T13:24:37;5.90;96.00
3226;DHT22;1625;49.884;8.666;2023-02-28T13:29:38;5.80;95.90
3226;DHT22;1625;49.884;8.666;2023-02-28T13:34:42;5.90;96.20
3226;DHT22;1625;49.884;8.666;2023-02-28T13:40:06;5.80;95.70
3226;DHT22;1625;49.884;8.666;2023-02-28T13:50:53;6.30;95.80
3226;DHT22;1625;49.884;8.666;2023-02-28T13:53:59;6.50;97.30
3226;DHT22;1625;49.884;8.666;2023-02-28T13:56:42;6.50;94.80
3226;DHT22;1625;49.884;8.666;2023-02-28T13:59:45;6.60;96.50
3226;DHT22;1625;49.884;8.666;2023-02-28T14:02:35;6.70;96.40
3226;DHT22;1625;49.884;8.666;2023-02-28T14:05:19;6.70;95.40
3226;DHT22;1625;49.884;8.666;2023-02-28T14:07:54;6.70;94.90
3226;DHT22;1625;49.884;8.666;2023-02-28T14:10:33;6.50;93.40
3226;DHT22;1625;49.884;8.666;2023-02-28T14:13:46;6.50;94.30
3226;DHT22;1625;49.884;8.666;2023-02-28T14:15:55;6.50;93.80
3226;DHT22;1625;49.884;8.666;2023-02-28T14:18:30;6.50;94.40
3226;DHT22;1625;49.884;8.666;2023-02-28T14:21:21;6.60;93.80
3226;DHT22;1625;49.884;8.666;2023-02-28T14:37:52;6.80;93.40
3226;DHT22;1625;49.884;8.666;2023-02-28T14:40:27;6.80;94.10
3226;DHT22;1625;49.884;8.666;2023-02-28T14:42:57;7.10;93.50
3226;DHT22;1625;49.884;8.666;2023-02-28T14:45:25;6.60;93.30
3226;DHT22;1625;49.884;8.666;2023-02-28T14:47:52;6.80;93.90
3226;DHT22;1625;49.884;8.666;2023-02-28T14:50:20;6.80;93.70
3226;DHT22;1625;49.884;8.666;2023-02-28T14:52:46;6.80;93.80
3226;DHT22;1625;49.884;8.666;2023-02-28T14:55:18;6.70;93.90
3226;DHT22;1625;49.884;8.666;2023-02-28T14:57:53;6.90;93.60
3226;DHT22;1625;49.884;8.666;2023-02-28T15:00:29;6.90;93.70
3226;DHT22;1625;49.884;8.666;2023-02-28T15:03:52;7.00;93.10
3226;DHT22;1625;49.884;8.666;2023-02-28T15:06:14;7.10;94.30
3226;DHT22;1625;49.884;8.666;2023-02-28T15:08:43;7.30;93.50
3226;DHT22;1625;49.884;8.666;2023-02-28T15:11:14;7.50;93.60
3226;DHT22;1625;49.884;8.666;2023-02-28T15:13:54;7.60;92.80
3226;DHT22;1625;49.884;8.666;2023-02-28T15:16:39;7.70;92.50
3226;DHT22;1625;49.884;8.666;2023-02-28T15:19:26;7.70;92.10
3226;DHT22;1625;49.884;8.666;2023-02-28T15:22:12;7.80;92.70
3226;DHT22;1625;49.884;8.666;2023-02-28T15:24:48;7.90;92.40
3226;DHT22;1625;49.884;8.666;2023-02-28T15:27:23;8.10;92.30
3226;DHT22;1625;49.884;8.666;2023-02-28T15:29:54;8.00;92.30
3226;DHT22;1625;49.884;8.666;2023-02-28T15:32:33;8.00;92.50
3226;DHT22;1625;49.884;8.666;2023-02-28T15:38:00;8.30;91.50
3226;DHT22;1625;49.884;8.666;2023-02-28T15:40:42;8.30;91.00
3226;DHT22;1625;49.884;8.666;2023-02-28T15:43:16;8.40;90.80
3226;DHT22;1625;49.884;8.666;2023-02-28T15:45:49;8.80;90.40
3226;DHT22;1625;49.884;8.666;2023-02-28T15:48:19;9.20;90.40
3226;DHT22;1625;49.884;8.666;2023-02-28T15:50:48;9.50;89.30
3226;DHT22;1625;49.884;8.666;2023-02-28T15:53:25;9.80;88.10
3226;DHT22;1625;49.884;8.666;2023-02-28T15:55:57;9.60;88.10
3226;DHT22;1625;49.884;8.666;2023-02-28T15:58:24;9.90;89.40
3226;DHT22;1625;49.884;8.666;2023-02-28T16:01:28;9.80;87.00
3226;DHT22;1625;49.884;8.666;2023-02-28T16:03:57;10.60;85.90
3226;DHT22;1625;49.884;8.666;2023-02-28T16:08:52;11.90;81.20
3226;DHT22;1625;49.884;8.666;2023-02-28T16:11:20;11.90;78.50
3226;DHT22;1625;49.884;8.666;2023-02-28T16:13:45;11.00;78.50
3226;DHT22;1625;49.884;8.666;2023-02-28T16:20:00;11.10;79.30
3226;DHT22;1625;49.884;8.666;2023-02-28T16:23:01;10.40;78.20
3226;DHT22;1625;49.884;8.666;2023-02-28T16:25:58;10.60;80.40
3226;DHT22;1625;49.884;8.666;2023-02-28T16:28:29;10.70;78.60
3226;DHT22;1625;49.884;8.666;2023-02-28T16:30:56;11.30;78.50
3226;DHT22;1625;49.884;8.666;2023-02-28T16:33:22;10.80;78.80
3226;DHT22;1625;49.884;8.666;2023-02-28T16:35:49;11.10;77.30
3226;DHT22;1625;49.884;8.666;2023-02-28T16:38:15;11.20;79.10
3226;DHT22;1625;49.884;8.666;2023-02-28T16:40:40;10.90;76.70
3226;DHT22;1625;49.884;8.666;2023-02-28T16:43:16;10.10;77.70
3226;DHT22;1625;49.884;8.666;2023-02-28T16:48:15;8.90;80.30
3226;DHT22;1625;49.884;8.666;2023-02-28T16:50:41;8.30;82.60
3226;DHT22;1625;49.884;8.666;2023-02-28T16:53:08;8.00;82.90
3226;DHT22;1625;49.884;8.666;2023-02-28T16:55:36;7.60;83.70
3226;DHT22;1625;49.884;8.666;2023-02-28T16:58:02;7.40;84.20
3226;DHT22;1625;49.884;8.666;2023-02-28T17:00:29;6.90;85.50
3226;DHT22;1625;49.884;8.666;2023-02-28T17:02:57;6.90;85.60
3226;DHT22;1625;49.884;8.666;2023-02-28T17:05:26;6.80;87.00
3226;DHT22;1625;49.884;8.666;2023-02-28T17:10:22;6.50;87.10
3226;DHT22;1625;49.884;8.666;2023-02-28T17:12:48;6.20;88.00
3226;DHT22;1625;49.884;8.666;2023-02-28T17:15:16;6.00;88.60
3226;DHT22;1625;49.884;8.666;2023-02-28T17:17:46;5.90;89.70
3226;DHT22;1625;49.884;8.666;2023-02-28T17:20:14;5.70;90.00
3226;DHT22;1625;49.884;8.666;2023-02-28T17:22:40;5.60;90.30
3226;DHT22;1625;49.884;8.666;2023-02-28T17:25:07;5.50;90.60
3226;DHT22;1625;49.884;8.666;2023-02-28T17:27:32;5.40;90.90
3226;DHT22;1625;49.884;8.666;2023-02-28T17:29:58;5.40;91.10
3226;DHT22;1625;49.884;8.666;2023-02-28T17:32:23;5.30;91.10
3226;DHT22;1625;49.884;8.666;2023-02-28T17:34:49;5.50;91.40
3226;DHT22;1625;49.884;8.666;2023-02-28T17:37:15;5.10;91.80
3226;DHT22;1625;49.884;8.666;2023-02-28T17:39:41;5.10;92.00
3226;DHT22;1625;49.884;8.666;2023-02-28T17:42:07;4.90;91.90
3226;DHT22;1625;49.884;8.666;2023-02-28T17:44:33;5.00;92.50
3226;DHT22;1625;49.884;8.666;2023-02-28T17:46:59;5.00;92.60
3226;DHT22;1625;49.884;8.666;2023-02-28T17:49:31;5.00;92.70
3226;DHT22;1625;49.884;8.666;2023-02-28T17:51:58;5.00;92.90
3226;DHT22;1625;49.884;8.666;2023-02-28T17:54:23;4.90;92.70
3226;DHT22;1625;49.884;8.666;2023-02-28T17:56:49;4.90;92.80
3226;DHT22;1625;49.884;8.666;2023-02-28T17:59:14;4.80;93.20
3226;DHT22;1625;49.884;8.666;2023-02-28T18:01:40;4.70;93.00
3226;DHT22;1625;49.884;8.666;2023-02-28T18:04:06;4.70;93.20
3226;DHT22;1625;49.884;8.666;2023-02-28T18:06:43;4.60;93.40
3226;DHT22;1625;49.884;8.666;2023-02-28T18:09:18;4.60;93.80
3226;DHT22;1625;49.884;8.666;2023-02-28T18:11:43;4.60;94.00
3226;DHT22;1625;49.884;8.666;2023-02-28T18:14:24;4.60;94.20
3226;DHT22;1625;49.884;8.666;2023-02-28T18:34:38;4.20;95.10
3226;DHT22;1625;49.884;8.666;2023-02-28T18:51:34;4.00;95.40
3226;DHT22;1625;49.884;8.666;2023-02-28T18:58:24;3.90;95.70
3226;DHT22;1625;49.884;8.666;2023-02-28T19:01:31;3.80;95.90
3226;DHT22;1625;49.884;8.666;2023-02-28T19:04:41;3.80;96.10
3226;DHT22;1625;49.884;8.666;2023-02-28T19:14:37;3.80;96.40
3226;DHT22;1625;49.884;8.666;2023-02-28T19:17:02;3.60;96.10
3226;DHT22;1625;49.884;8.666;2023-02-28T19:19:59;3.70;96.40
3226;DHT22;1625;49.884;8.666;2023-02-28T19:23:24;3.70;96.60
3226;DHT22;1625;49.884;8.666;2023-02-28T19:26:47;3.70;96.50
3226;DHT22;1625;49.884;8.666;2023-02-28T19:29:52;3.60;96.70
3226;DHT22;1625;49.884;8.666;2023-02-28T19:33:41;3.60;96.80
3226;DHT22;1625;49.884;8.666;2023-02-28T19:55:10;3.30;97.40
3226;DHT22;1625;49.884;8.666;2023-02-28T19:58:03;3.10;97.40
3226;DHT22;1625;49.884;8.666;2023-02-28T20:00:32;3.10;97.50
3226;DHT22;1625;49.884;8.666;2023-02-28T20:02:57;3.00;97.60
3226;DHT22;1625;49.884;8.666;2023-02-28T20:05:23;3.00;97.90
3226;DHT22;1625;49.884;8.666;2023-02-28T20:07:51;2.90;98.00
3226;DHT22;1625;49.884;8.666;2023-02-28T20:10:19;3.00;98.30
3226;DHT22;1625;49.884;8.666;2023-02-28T20:12:48;2.90;98.20
3226;DHT22;1625;49.884;8.666;2023-02-28T20:15:14;2.90;98.60
3226;DHT22;1625;49.884;8.666;2023-02-28T20:17:39;2.90;98.70
3226;DHT22;1625;49.884;8.666;2023-02-28T20:20:11;2.90;98.60
3226;DHT22;1625;49.884;8.666;2023-02-28T20:22:37;2.90;98.90
3226;DHT22;1625;49.884;8.666;2023-02-28T20:25:04;2.90;98.80
3226;DHT22;1625;49.884;8.666;2023-02-28T20:27:32;2.80;98.90
3226;DHT22;1625;49.884;8.666;2023-02-28T20:30:00;2.80;99.20
3226;DHT22;1625;49.884;8.666;2023-02-28T20:32:25;2.80;99.20
3226;DHT22;1625;49.884;8.666;2023-02-28T20:38:27;2.70;99.70
3226;DHT22;1625;49.884;8.666;2023-02-28T20:40:58;2.70;99.70
3226;DHT22;1625;49.884;8.666;2023-02-28T20:43:23;2.70;99.90
3226;DHT22;1625;49.884;8.666;2023-02-28T20:53:32;2.70;99.90
3226;DHT22;1625;49.884;8.666;2023-02-28T21:00:08;2.60;99.90
3226;DHT22;1625;49.884;8.666;2023-02-28T21:02:35;2.60;99.90
3226;DHT22;1625;49.884;8.666;2023-02-28T21:05:01;2.90;99.90
3226;DHT22;1625;49.884;8.666;2023-02-28T21:07:27;2.70;99.90
3226;DHT22;1625;49.884;8.666;2023-02-28T21:09:54;2.60;99.90
3226;DHT22;1625;49.884;8.666;2023-02-28T21:12:20;2.60;99.90
3226;DHT22;1625;49.884;8.666;2023-02-28T21:14:49;2.60;99.90
3226;DHT22;1625;49.884;8.666;2023-02-28T21:17:14;2.70;99.90
3226;DHT22;1625;49.884;8.666;2023-02-28T21:19:40;2.50;99.90
3226;DHT22;1625;49.884;8.666;2023-02-28T21:22:05;2.60;99.90
3226;DHT22;1625;49.884;8.666;2023-02-28T21:24:31;2.70;99.90
3226;DHT22;1625;49.884;8.666;2023-02-28T21:26:56;2.50;99.90
3226;DHT22;1625;49.884;8.666;2023-02-28T21:29:24;2.80;99.90
3226;DHT22;1625;49.884;8.666;2023-02-28T21:31:50;2.50;99.90
3226;DHT22;1625;49.884;8.666;2023-02-28T21:34:16;2.50;99.90
3226;DHT22;1625;49.884;8.666;2023-02-28T21:36:43;2.50;99.90
3226;DHT22;1625;49.884;8.666;2023-02-28T21:39:15;2.50;99.90
3226;DHT22;1625;49.884;8.666;2023-02-28T21:41:41;2.50;99.90
3226;DHT22;1625;49.884;8.666;2023-02-28T21:44:08;2.40;99.90
3226;DHT22;1625;49.884;8.666;2023-02-28T21:46:33;2.70;99.90
3226;DHT22;1625;49.884;8.666;2023-02-28T21:48:59;2.40;99.90
3226;DHT22;1625;49.884;8.666;2023-02-28T21:51:29;2.50;99.90
3226;DHT22;1625;49.884;8.666;2023-02-28T21:53:59;2.40;99.90
3226;DHT22;1625;49.884;8.666;2023-02-28T21:56:30;2.40;99.90
3226;DHT22;1625;49.884;8.666;2023-02-28T21:58:56;2.40;99.90
3226;DHT22;1625;49.884;8.666;2023-02-28T22:01:26;2.80;99.90
3226;DHT22;1625;49.884;8.666;2023-02-28T22:03:54;2.40;99.90
3226;DHT22;1625;49.884;8.666;2023-02-28T22:06:22;2.40;99.90
3226;DHT22;1625;49.884;8.666;2023-02-28T22:08:52;2.40;99.90
3226;DHT22;1625;49.884;8.666;2023-02-28T22:11:19;2.30;99.90
3226;DHT22;1625;49.884;8.666;2023-02-28T22:13:46;2.30;99.90
3226;DHT22;1625;49.884;8.666;2023-02-28T22:16:17;2.30;99.90
3226;DHT22;1625;49.884;8.666;2023-02-28T22:18:43;2.20;99.90
3226;DHT22;1625;49.884;8.666;2023-02-28T22:21:11;2.20;99.90
3226;DHT22;1625;49.884;8.666;2023-02-28T22:23:37;2.10;99.90
3226;DHT22;1625;49.884;8.666;2023-02-28T22:26:05;2.80;99.90
3226;DHT22;1625;49.884;8.666;2023-02-28T22:28:32;2.10;99.90
3226;DHT22;1625;49.884;8.666;2023-02-28T22:33:37;2.20;99.90
3226;DHT22;1625;49.884;8.666;2023-02-28T22:36:06;2.20;99.90
3226;DHT22;1625;49.884;8.666;2023-02-28T22:38:32;2.10;99.90
3226;DHT22;1625;49.884;8.666;2023-02-28T22:41:00;2.10;99.90
3226;DHT22;1625;49.884;8.666;2023-02-28T22:43:26;2.10;99.90
3226;DHT22;1625;49.884;8.666;2023-02-28T22:45:52;2.30;99.90
3226;DHT22;1625;49.884;8.666;2023-02-28T22:48:18;2.00;99.90
3226;DHT22;1625;49.884;8.666;2023-02-28T22:50:44;1.90;99.90
3226;DHT22;1625;49.884;8.666;2023-02-28T22:53:09;1.90;99.90
3226;DHT22;1625;49.884;8.666;2023-02-28T22:55:35;2.30;99.90
3226;DHT22;1625;49.884;8.666;2023-02-28T22:58:00;2.00;99.90
3226;DHT22;1625;49.884;8.666;2023-02-28T23:00:26;2.50;99.90
3226;DHT22;1625;49.884;8.666;2023-02-28T23:02:52;2.20;99.90
3226;DHT22;1625;49.884;8.666;2023-02-28T23:05:17;1.90;99.90
3226;DHT22;1625;49.884;8.666;2023-02-28T23:07:43;1.90;99.90
3226;DHT22;1625;49.884;8.666;2023-02-28T23:10:12;2.20;99.90
3226;DHT22;1625;49.884;8.666;2023-02-28T23:12:38;1.90;99.90
3226;DHT22;1625;49.884;8.666;2023-02-28T23:15:21;2.50;99.90
3226;DHT22;1625;49.884;8.666;2023-02-28T23:17:49;1.80;99.90
3226;DHT22;1625;49.884;8.666;2023-02-28T23:20:18;1.70;99.90
3226;DHT22;1625;49.884;8.666;2023-02-28T23:22:44;1.70;99.90
3226;DHT22;1625;49.884;8.666;2023-02-28T23:25:12;2.80;99.90
3226;DHT22;1625;49.884;8.666;2023-02-28T23:27:38;1.70;99.90
3226;DHT22;1625;49.884;8.666;2023-02-28T23:30:04;2.10;99.90
3226;DHT22;1625;49.884;8.666;2023-02-28T23:32:31;1.70;99.90
3226;DHT22;1625;49.884;8.666;2023-02-28T23:34:58;1.70;99.90
3226;DHT22;1625;49.884;8.666;2023-02-28T23:37:24;1.70;99.90
3226;DHT22;1625;49.884;8.666;2023-02-28T23:39:50;1.60;99.90
3226;DHT22;1625;49.884;8.666;2023-02-28T23:42:16;2.40;99.90
3226;DHT22;1625;49.884;8.666;2023-02-28T23:44:41;1.70;99.90
3226;DHT22;1625;49.884;8.666;2023-02-28T23:47:07;1.60;99.90
3226;DHT22;1625;49.884;8.666;2023-02-28T23:49:32;1.70;99.90
3226;DHT22;1625;49.884;8.666;2023-02-28T23:51:58;1.60;99.90
3226;DHT22;1625;49.884;8.666;2023-02-28T23:54:24;1.70;99.90
3226;DHT22;1625;49.884;8.666;2023-02-28T23:56:50;1.70;99.90
3226;DHT22;1625;49.884;8.666;2023-02-28T23:59:15;2.50;99.90
